Jones Mills, Pennsylvania
Current Conditions -  °F | °C
As of 4:35 AM on Sunday 26 Oct 2014 (Local Time) from KLBE Reporting Station
Clear Clear  
Wind Chill: 40°   Ceiling: Unl
Heat Index: 45°   Visibility: 10mi
Dew Point: 34°   Wind: 9mph
Humidity: 66%   Direction: 210°SSW
Pressure: 29.8"   Gusts: NA
Location:  40.09°N, 79.34°W
Report Text: KLBE 260835Z AUTO 21008KT 10SM CLR 07/01 A2980 RMK A02 P000
Loading
Personal Weather Stations






























Interactive Weather Map
Tropical Storm Tracking
New forecast layout! Learn more

10-Day Weather Forecast

Advertisements
Track Severe Weather on mobile